createdAt,value
2022-12-01T00:00:03.807Z,985.94
2022-12-01T00:01:03.816Z,985.91
2022-12-01T00:02:04.105Z,985.97
2022-12-01T00:03:03.904Z,985.83
2022-12-01T00:04:03.577Z,985.80
2022-12-01T00:05:03.545Z,985.85
2022-12-01T00:06:03.433Z,985.88
2022-12-01T00:07:03.387Z,985.83
2022-12-01T00:08:03.506Z,985.88
2022-12-01T00:09:03.372Z,985.77
2022-12-01T00:10:03.296Z,985.97
2022-12-01T00:11:03.193Z,985.91
2022-12-01T00:12:03.132Z,985.80
2022-12-01T00:13:03.192Z,985.83
2022-12-01T00:14:03.192Z,985.77
2022-12-01T00:15:03.177Z,985.74
2022-12-01T00:16:03.138Z,985.74
2022-12-01T00:17:03.199Z,985.74
2022-12-01T00:18:03.171Z,985.66
2022-12-01T00:19:03.063Z,985.83
2022-12-01T00:20:03.015Z,985.69
2022-12-01T00:21:03.041Z,985.94
2022-12-01T00:22:03.002Z,985.91
2022-12-01T00:23:03.029Z,985.88
2022-12-01T00:24:03.087Z,985.85
2022-12-01T00:25:03.034Z,985.77
2022-12-01T00:26:02.852Z,985.83
2022-12-01T00:27:02.996Z,985.94
2022-12-01T00:28:03.824Z,985.88
2022-12-01T00:29:03.747Z,985.88
2022-12-01T00:30:03.676Z,985.74
2022-12-01T00:31:03.582Z,985.88
2022-12-01T00:32:03.754Z,985.66
2022-12-01T00:33:03.631Z,985.80
2022-12-01T00:34:11.440Z,985.69
2022-12-01T00:35:03.495Z,985.77
2022-12-01T00:36:03.619Z,985.71
2022-12-01T00:37:03.493Z,985.85
2022-12-01T00:38:03.432Z,985.71
2022-12-01T00:39:03.326Z,985.74
2022-12-01T00:40:03.333Z,985.71
2022-12-01T00:41:03.233Z,985.74
2022-12-01T00:42:03.276Z,985.71
2022-12-01T00:43:03.113Z,985.80
2022-12-01T00:44:03.106Z,985.83
2022-12-01T00:45:03.181Z,985.80
2022-12-01T00:46:03.427Z,985.80
2022-12-01T00:47:03.186Z,985.74
2022-12-01T00:48:03.086Z,986.05
2022-12-01T00:49:02.944Z,985.80
2022-12-01T00:50:03.069Z,985.91
2022-12-01T00:51:02.891Z,985.91
2022-12-01T00:52:02.949Z,985.83
2022-12-01T00:53:02.930Z,985.77
2022-12-01T00:54:03.870Z,985.97
2022-12-01T00:55:03.708Z,985.86
2022-12-01T00:56:03.790Z,985.91
2022-12-01T00:57:03.736Z,985.83
2022-12-01T00:58:03.690Z,985.94
2022-12-01T00:59:03.689Z,985.91
2022-12-01T01:00:03.510Z,985.94
2022-12-01T01:01:03.635Z,985.86
2022-12-01T01:02:03.553Z,985.94
2022-12-01T01:03:03.360Z,985.83
2022-12-01T01:04:03.174Z,985.83
2022-12-01T01:05:03.180Z,985.83
2022-12-01T01:06:03.102Z,985.91
2022-12-01T01:07:03.075Z,985.77
2022-12-01T01:08:03.130Z,985.94
2022-12-01T01:09:02.927Z,985.80
2022-12-01T01:10:04.219Z,985.88
2022-12-01T01:11:03.015Z,985.91
2022-12-01T01:12:02.899Z,985.86
2022-12-01T01:13:03.816Z,985.83
2022-12-01T01:14:03.849Z,985.71
2022-12-01T01:15:03.846Z,985.88
2022-12-01T01:16:03.835Z,985.85
2022-12-01T01:17:04.010Z,985.83
2022-12-01T01:18:03.766Z,985.88
2022-12-01T01:19:03.697Z,985.97
2022-12-01T01:20:03.512Z,985.83
2022-12-01T01:21:03.492Z,985.88
2022-12-01T01:22:03.530Z,985.94
2022-12-01T01:23:03.470Z,985.83
2022-12-01T01:24:03.469Z,985.88
2022-12-01T01:25:03.357Z,985.94
2022-12-01T01:26:03.304Z,985.99
2022-12-01T01:27:03.181Z,985.83
2022-12-01T01:28:03.191Z,985.88
2022-12-01T01:29:03.024Z,986.02
2022-12-01T01:30:03.114Z,985.83
2022-12-01T01:31:03.348Z,985.91
2022-12-01T01:32:03.167Z,985.99
2022-12-01T01:33:03.075Z,985.85
2022-12-01T01:34:02.980Z,985.88
2022-12-01T01:35:02.986Z,985.94
2022-12-01T01:36:03.031Z,985.77
2022-12-01T01:37:02.939Z,985.82
2022-12-01T01:38:03.971Z,985.85
2022-12-01T01:39:03.779Z,985.85
2022-12-01T01:40:03.766Z,986.02
2022-12-01T01:41:03.679Z,985.99
2022-12-01T01:42:03.733Z,985.97
2022-12-01T01:43:03.779Z,985.94
2022-12-01T01:44:03.634Z,985.88
2022-12-01T01:45:03.480Z,986.02
2022-12-01T01:46:03.565Z,985.83
2022-12-01T01:47:03.295Z,985.91
2022-12-01T01:48:03.331Z,986.05
2022-12-01T01:49:03.290Z,985.94
2022-12-01T01:50:03.195Z,985.83
2022-12-01T01:51:03.107Z,985.94
2022-12-01T01:52:03.186Z,985.94
2022-12-01T01:53:02.976Z,985.99
2022-12-01T01:54:02.922Z,985.94
2022-12-01T01:55:03.850Z,985.83
2022-12-01T01:56:03.826Z,985.94
2022-12-01T01:57:03.697Z,985.69
2022-12-01T01:58:03.669Z,985.99
2022-12-01T01:59:03.537Z,985.88
2022-12-01T02:00:03.485Z,985.88
2022-12-01T02:01:03.515Z,985.82
2022-12-01T02:02:03.540Z,985.94
2022-12-01T02:03:03.334Z,985.99
2022-12-01T02:04:03.273Z,985.91
2022-12-01T02:05:03.121Z,985.96
2022-12-01T02:06:05.587Z,985.91
2022-12-01T02:07:03.073Z,985.80
2022-12-01T02:08:03.164Z,985.94
2022-12-01T02:09:02.998Z,985.80
2022-12-01T02:10:02.982Z,985.94
2022-12-01T02:11:03.813Z,985.85
2022-12-01T02:12:03.823Z,985.91
2022-12-01T02:13:03.868Z,985.94
2022-12-01T02:14:03.723Z,985.88
2022-12-01T02:15:03.588Z,985.91
2022-12-01T02:16:03.536Z,985.77
2022-12-01T02:17:03.650Z,985.80
2022-12-01T02:18:03.502Z,985.88
2022-12-01T02:19:03.462Z,986.02
2022-12-01T02:20:03.419Z,985.80
2022-12-01T02:21:03.315Z,985.80
2022-12-01T02:22:03.270Z,985.88
2022-12-01T02:23:03.377Z,985.94
2022-12-01T02:24:03.058Z,985.77
2022-12-01T02:25:03.006Z,985.94
2022-12-01T02:26:03.060Z,985.83
2022-12-01T02:27:03.003Z,985.88
2022-12-01T02:28:02.988Z,985.86
2022-12-01T02:29:03.008Z,985.77
2022-12-01T02:30:02.898Z,985.83
2022-12-01T02:31:03.865Z,985.88
2022-12-01T02:32:03.095Z,985.80
2022-12-01T02:33:03.094Z,985.83
2022-12-01T02:34:03.023Z,985.97
2022-12-01T02:35:03.824Z,985.74
2022-12-01T02:36:03.849Z,985.94
2022-12-01T02:37:03.595Z,985.97
2022-12-01T02:38:03.694Z,986.00
2022-12-01T02:39:03.706Z,986.00
2022-12-01T02:40:03.802Z,985.97
2022-12-01T02:41:03.659Z,985.83
2022-12-01T02:42:03.576Z,985.94
2022-12-01T02:43:03.493Z,986.03
2022-12-01T02:44:03.464Z,985.89
2022-12-01T02:45:03.406Z,985.94
2022-12-01T02:46:03.882Z,985.94
2022-12-01T02:47:03.674Z,985.97
2022-12-01T02:48:03.695Z,986.00
2022-12-01T02:49:03.550Z,985.97
2022-12-01T02:50:03.496Z,986.00
2022-12-01T02:51:03.408Z,985.89
2022-12-01T02:52:03.295Z,985.92
2022-12-01T02:53:03.172Z,985.86
2022-12-01T02:54:03.213Z,985.89
2022-12-01T02:55:03.243Z,985.97
2022-12-01T02:56:03.087Z,985.95
2022-12-01T02:57:03.082Z,985.86
2022-12-01T02:58:02.924Z,985.75
2022-12-01T02:59:02.906Z,985.75
2022-12-01T03:00:03.844Z,985.92
2022-12-01T03:01:03.145Z,985.89
2022-12-01T03:02:03.010Z,985.83
2022-12-01T03:03:03.128Z,985.75
2022-12-01T03:04:03.001Z,985.81
2022-12-01T03:05:02.911Z,985.78
2022-12-01T03:06:02.933Z,985.78
2022-12-01T03:07:03.844Z,985.89
2022-12-01T03:08:03.071Z,985.95
2022-12-01T03:09:03.884Z,986.00
2022-12-01T03:10:03.783Z,985.89
2022-12-01T03:11:03.703Z,985.73
2022-12-01T03:12:03.607Z,985.87
2022-12-01T03:13:03.610Z,985.64
2022-12-01T03:14:03.651Z,985.78
2022-12-01T03:15:03.608Z,985.92
2022-12-01T03:16:03.578Z,985.87
2022-12-01T03:17:03.519Z,985.81
2022-12-01T03:18:03.376Z,985.90
2022-12-01T03:19:03.435Z,985.87
2022-12-01T03:20:03.329Z,985.84
2022-12-01T03:21:03.261Z,985.87
2022-12-01T03:22:03.243Z,985.98
2022-12-01T03:23:03.286Z,985.93
2022-12-01T03:24:03.309Z,986.04
2022-12-01T03:25:03.264Z,986.07
2022-12-01T03:26:03.223Z,985.84
2022-12-01T03:27:03.186Z,985.82
2022-12-01T03:28:22.580Z,985.87
2022-12-01T03:29:03.136Z,985.93
2022-12-01T03:30:03.041Z,986.02
2022-12-01T03:31:03.150Z,985.85
2022-12-01T03:32:02.953Z,985.90
2022-12-01T03:33:03.886Z,985.99
2022-12-01T03:34:03.888Z,985.90
2022-12-01T03:35:03.789Z,985.85
2022-12-01T03:36:03.753Z,985.91
2022-12-01T03:37:03.646Z,985.85
2022-12-01T03:38:03.627Z,985.96
2022-12-01T03:39:03.580Z,985.88
2022-12-01T03:40:03.598Z,985.82
2022-12-01T03:41:03.503Z,985.91
2022-12-01T03:42:03.513Z,985.88
2022-12-01T03:43:03.521Z,985.94
2022-12-01T03:44:03.346Z,985.94
2022-12-01T03:45:03.388Z,985.88
2022-12-01T03:46:03.488Z,985.83
2022-12-01T03:47:03.363Z,985.77
2022-12-01T03:48:03.189Z,985.80
2022-12-01T03:49:03.181Z,985.77
2022-12-01T03:50:03.232Z,985.86
2022-12-01T03:51:03.260Z,985.94
2022-12-01T03:52:03.304Z,985.97
2022-12-01T03:53:03.179Z,986.03
2022-12-01T03:54:03.206Z,985.83
2022-12-01T03:55:03.323Z,985.89
2022-12-01T03:56:03.104Z,985.75
2022-12-01T03:57:03.008Z,985.95
2022-12-01T03:58:03.005Z,985.95
2022-12-01T03:59:02.964Z,985.92
2022-12-01T04:00:02.967Z,985.75
2022-12-01T04:01:03.777Z,985.84
2022-12-01T04:02:03.960Z,985.92
2022-12-01T04:03:03.872Z,985.89
2022-12-01T04:04:03.686Z,985.98
2022-12-01T04:05:03.548Z,985.92
2022-12-01T04:06:03.433Z,986.03
2022-12-01T04:07:03.441Z,986.03
2022-12-01T04:08:03.499Z,986.06
2022-12-01T04:09:03.304Z,985.98
2022-12-01T04:10:03.318Z,985.84
2022-12-01T04:11:03.228Z,986.04
2022-12-01T04:12:03.143Z,986.01
2022-12-01T04:13:03.144Z,986.01
2022-12-01T04:14:02.986Z,986.18
2022-12-01T04:15:03.135Z,986.07
2022-12-01T04:16:03.223Z,985.93
2022-12-01T04:17:03.005Z,986.01
2022-12-01T04:18:02.951Z,985.99
2022-12-01T04:19:02.946Z,985.96
2022-12-01T04:20:03.783Z,986.04
2022-12-01T04:21:03.717Z,986.21
2022-12-01T04:22:03.754Z,986.04
2022-12-01T04:23:03.761Z,985.99
2022-12-01T04:24:03.687Z,986.16
2022-12-01T04:25:03.584Z,985.99
2022-12-01T04:26:03.445Z,985.96
2022-12-01T04:27:03.625Z,985.96
2022-12-01T04:28:03.462Z,986.16
2022-12-01T04:29:03.364Z,986.13
2022-12-01T04:30:03.321Z,985.97
2022-12-01T04:31:03.299Z,985.86
2022-12-01T04:32:03.179Z,986.00
2022-12-01T04:33:02.984Z,985.94
2022-12-01T04:34:02.852Z,986.02
2022-12-01T04:35:03.813Z,986.00
2022-12-01T04:36:03.776Z,986.00
2022-12-01T04:37:03.598Z,985.97
2022-12-01T04:38:03.524Z,986.02
2022-12-01T04:39:03.452Z,986.03
2022-12-01T04:40:03.458Z,985.97
2022-12-01T04:41:03.319Z,986.08
2022-12-01T04:42:03.498Z,985.89
2022-12-01T04:43:03.302Z,986.06
2022-12-01T04:44:03.263Z,985.92
2022-12-01T04:45:03.342Z,985.86
2022-12-01T04:46:03.123Z,985.89
2022-12-01T04:47:03.333Z,985.92
2022-12-01T04:48:03.137Z,985.89
2022-12-01T04:49:03.154Z,986.00
2022-12-01T04:50:03.116Z,985.86
2022-12-01T04:51:02.924Z,985.78
2022-12-01T04:52:03.090Z,985.78
2022-12-01T04:53:02.909Z,985.86
2022-12-01T04:54:03.851Z,985.95
2022-12-01T04:55:03.738Z,985.83
2022-12-01T04:56:03.850Z,985.95
2022-12-01T04:57:03.703Z,985.89
2022-12-01T04:58:03.564Z,985.83
2022-12-01T04:59:03.470Z,985.95
2022-12-01T05:00:03.474Z,985.78
2022-12-01T05:01:03.652Z,985.83
2022-12-01T05:02:03.509Z,985.89
2022-12-01T05:03:03.319Z,985.92
2022-12-01T05:04:03.261Z,985.86
2022-12-01T05:05:03.304Z,985.69
2022-12-01T05:06:03.201Z,985.86
2022-12-01T05:07:03.094Z,985.95
2022-12-01T05:08:03.109Z,985.78
2022-12-01T05:09:02.871Z,985.75
2022-12-01T05:10:03.869Z,985.83
2022-12-01T05:11:03.878Z,985.81
2022-12-01T05:12:03.676Z,985.83
2022-12-01T05:13:03.563Z,985.83
2022-12-01T05:14:03.415Z,985.75
2022-12-01T05:15:03.398Z,985.83
2022-12-01T05:16:03.466Z,985.81
2022-12-01T05:17:03.372Z,985.81
2022-12-01T05:18:03.285Z,985.86
2022-12-01T05:19:03.242Z,985.92
2022-12-01T05:20:03.355Z,985.75
2022-12-01T05:21:03.247Z,985.78
2022-12-01T05:22:03.190Z,985.92
2022-12-01T05:23:06.614Z,985.95
2022-12-01T05:24:03.072Z,985.86
2022-12-01T05:25:03.459Z,985.95
2022-12-01T05:26:03.110Z,985.75
2022-12-01T05:27:03.008Z,985.89
2022-12-01T05:28:02.965Z,985.83
2022-12-01T05:29:02.911Z,985.72
2022-12-01T05:30:03.813Z,985.78
2022-12-01T05:31:03.959Z,985.86
2022-12-01T05:32:03.947Z,985.78
2022-12-01T05:33:03.761Z,985.83
2022-12-01T05:34:03.722Z,985.78
2022-12-01T05:35:03.785Z,985.69
2022-12-01T05:36:03.853Z,985.92
2022-12-01T05:37:03.665Z,985.78
2022-12-01T05:38:08.376Z,985.80
2022-12-01T05:39:03.593Z,985.80
2022-12-01T05:40:03.554Z,985.78
2022-12-01T05:41:03.549Z,985.83
2022-12-01T05:42:03.428Z,985.86
2022-12-01T05:43:03.293Z,985.66
2022-12-01T05:44:03.298Z,985.80
2022-12-01T05:45:03.118Z,985.89
2022-12-01T05:46:03.303Z,985.80
2022-12-01T05:47:02.963Z,985.75
2022-12-01T05:48:02.933Z,985.69
2022-12-01T05:49:03.924Z,985.72
2022-12-01T05:50:06.317Z,985.77
2022-12-01T05:51:03.677Z,985.83
2022-12-01T05:52:03.637Z,985.83
2022-12-01T05:53:03.569Z,985.74
2022-12-01T05:54:03.476Z,985.88
2022-12-01T05:55:03.585Z,985.86
2022-12-01T05:56:03.394Z,985.88
2022-12-01T05:57:03.211Z,985.72
2022-12-01T05:58:03.238Z,985.77
2022-12-01T05:59:03.159Z,985.77
2022-12-01T06:00:03.216Z,985.77
2022-12-01T06:01:03.147Z,985.94
2022-12-01T06:02:03.147Z,985.77
2022-12-01T06:03:02.930Z,985.80
2022-12-01T06:04:03.555Z,985.77
2022-12-01T06:05:03.519Z,985.83
2022-12-01T06:06:03.542Z,985.88
2022-12-01T06:07:03.413Z,985.80
2022-12-01T06:08:03.357Z,985.83
2022-12-01T06:09:03.231Z,985.80
2022-12-01T06:10:03.175Z,985.74
2022-12-01T06:11:03.147Z,986.05
2022-12-01T06:12:03.037Z,985.94
2022-12-01T06:13:02.951Z,985.91
2022-12-01T06:14:02.933Z,985.97
2022-12-01T06:15:03.825Z,985.94
2022-12-01T06:16:03.768Z,986.05
2022-12-01T06:17:03.659Z,985.91
2022-12-01T06:18:03.497Z,985.91
2022-12-01T06:19:03.438Z,985.80
2022-12-01T06:20:03.088Z,985.85
2022-12-01T06:21:03.098Z,985.94
2022-12-01T06:22:03.041Z,986.08
2022-12-01T06:23:03.851Z,986.02
2022-12-01T06:24:04.007Z,986.02
2022-12-01T06:25:03.833Z,985.97
2022-12-01T06:26:03.687Z,986.05
2022-12-01T06:27:03.538Z,985.97
2022-12-01T06:28:03.395Z,986.02
2022-12-01T06:29:03.479Z,986.05
2022-12-01T06:30:03.459Z,986.08
2022-12-01T06:31:04.177Z,985.88
2022-12-01T06:32:03.576Z,986.11
2022-12-01T06:33:03.304Z,986.02
2022-12-01T06:34:03.357Z,985.99
2022-12-01T06:35:03.286Z,985.97
2022-12-01T06:36:03.333Z,986.11
2022-12-01T06:37:03.151Z,985.86
2022-12-01T06:38:03.161Z,986.11
2022-12-01T06:39:03.090Z,986.13
2022-12-01T06:40:02.967Z,985.97
2022-12-01T06:41:03.820Z,986.11
2022-12-01T06:42:03.782Z,985.99
2022-12-01T06:43:03.749Z,986.02
2022-12-01T06:44:03.769Z,985.86
2022-12-01T06:45:03.634Z,985.94
2022-12-01T06:46:03.702Z,986.19
2022-12-01T06:47:03.476Z,986.02
2022-12-01T06:48:03.450Z,986.08
2022-12-01T06:49:03.391Z,985.97
2022-12-01T06:50:03.290Z,986.11
2022-12-01T06:51:03.252Z,986.02
2022-12-01T06:52:03.075Z,986.02
2022-12-01T06:53:02.973Z,986.11
2022-12-01T06:54:06.060Z,986.00
2022-12-01T06:55:03.041Z,985.88
2022-12-01T06:56:03.121Z,986.05
2022-12-01T06:57:04.141Z,986.08
2022-12-01T06:58:04.416Z,986.11
2022-12-01T06:59:04.168Z,986.00
2022-12-01T07:00:04.210Z,986.02
2022-12-01T07:01:03.881Z,986.14
2022-12-01T07:02:03.867Z,986.11
2022-12-01T07:03:03.767Z,986.05
2022-12-01T07:04:03.690Z,986.11
2022-12-01T07:05:03.665Z,986.16
2022-12-01T07:06:03.581Z,986.16
2022-12-01T07:07:03.534Z,986.05
2022-12-01T07:08:03.698Z,986.19
2022-12-01T07:09:03.461Z,986.16
2022-12-01T07:10:03.377Z,986.25
2022-12-01T07:11:03.382Z,986.19
2022-12-01T07:12:03.288Z,986.14
2022-12-01T07:13:03.198Z,986.11
2022-12-01T07:14:03.137Z,986.03
2022-12-01T07:15:02.893Z,986.05
2022-12-01T07:16:03.647Z,986.05
2022-12-01T07:17:04.057Z,986.30
2022-12-01T07:18:02.894Z,986.28
2022-12-01T07:19:02.879Z,986.25
2022-12-01T07:20:03.747Z,986.11
2022-12-01T07:21:03.669Z,986.14
2022-12-01T07:22:03.727Z,986.22
2022-12-01T07:23:03.568Z,986.17
2022-12-01T07:24:03.495Z,986.25
2022-12-01T07:25:03.462Z,986.22
2022-12-01T07:26:03.431Z,986.28
2022-12-01T07:27:03.494Z,986.31
2022-12-01T07:28:03.332Z,986.31
2022-12-01T07:29:03.268Z,986.33
2022-12-01T07:30:03.152Z,986.22
2022-12-01T07:31:03.323Z,986.33
2022-12-01T07:32:03.180Z,986.17
2022-12-01T07:33:03.100Z,986.33
2022-12-01T07:34:03.103Z,986.39
2022-12-01T07:35:02.957Z,986.42
2022-12-01T07:36:02.928Z,986.20
2022-12-01T07:37:03.884Z,986.31
2022-12-01T07:38:03.685Z,986.42
2022-12-01T07:39:03.718Z,986.34
2022-12-01T07:40:03.635Z,986.25
2022-12-01T07:41:03.610Z,986.28
2022-12-01T07:42:03.592Z,986.31
2022-12-01T07:43:03.515Z,986.45
2022-12-01T07:44:03.439Z,986.28
2022-12-01T07:45:03.321Z,986.36
2022-12-01T07:46:03.280Z,986.28
2022-12-01T07:47:03.301Z,986.17
2022-12-01T07:48:03.236Z,986.25
2022-12-01T07:49:03.101Z,986.28
2022-12-01T07:50:03.055Z,986.34
2022-12-01T07:51:02.958Z,986.48
2022-12-01T07:52:02.926Z,986.31
2022-12-01T07:53:03.787Z,986.37
2022-12-01T07:54:03.766Z,986.50
2022-12-01T07:55:03.681Z,986.39
2022-12-01T07:56:08.993Z,986.39
2022-12-01T07:57:03.533Z,986.37
2022-12-01T07:58:03.437Z,986.37
2022-12-01T07:59:03.450Z,986.39
2022-12-01T08:00:03.530Z,986.42
2022-12-01T08:01:03.414Z,986.45
2022-12-01T08:02:03.419Z,986.61
2022-12-01T08:03:03.472Z,986.51
2022-12-01T08:04:03.218Z,986.58
2022-12-01T08:05:03.280Z,986.51
2022-12-01T08:06:03.108Z,986.39
2022-12-01T08:07:03.066Z,986.45
2022-12-01T08:08:03.136Z,986.39
2022-12-01T08:09:02.903Z,986.66
2022-12-01T08:10:03.851Z,986.56
2022-12-01T08:11:03.786Z,986.39
2022-12-01T08:12:03.635Z,986.58
2022-12-01T08:13:03.697Z,986.45
2022-12-01T08:14:03.291Z,986.56
2022-12-01T08:15:03.174Z,986.56
2022-12-01T08:16:03.248Z,986.37
2022-12-01T08:17:03.000Z,986.48
2022-12-01T08:18:02.941Z,986.53
2022-12-01T08:19:03.815Z,986.42
2022-12-01T08:20:03.696Z,986.51
2022-12-01T08:21:03.596Z,986.51
2022-12-01T08:22:03.472Z,986.56
2022-12-01T08:23:03.424Z,986.53
2022-12-01T08:24:03.490Z,986.53
2022-12-01T08:25:03.558Z,986.58
2022-12-01T08:26:03.424Z,986.58
2022-12-01T08:27:03.350Z,986.42
2022-12-01T08:28:03.233Z,986.58
2022-12-01T08:29:03.315Z,986.45
2022-12-01T08:30:03.342Z,986.64
2022-12-01T08:31:03.468Z,986.61
2022-12-01T08:32:03.197Z,986.48
2022-12-01T08:33:03.315Z,986.53
2022-12-01T08:34:02.997Z,986.48
2022-12-01T08:35:03.011Z,986.72
2022-12-01T08:36:03.064Z,986.53
2022-12-01T08:37:02.933Z,986.61
2022-12-01T08:38:03.936Z,986.45
2022-12-01T08:39:03.825Z,986.51
2022-12-01T08:40:03.673Z,986.58
2022-12-01T08:41:03.662Z,986.51
2022-12-01T08:42:03.557Z,986.56
2022-12-01T08:43:03.588Z,986.51
2022-12-01T08:44:03.588Z,986.48
2022-12-01T08:45:03.608Z,986.64
2022-12-01T08:46:03.488Z,986.66
2022-12-01T08:47:03.326Z,986.56
2022-12-01T08:48:03.346Z,986.69
2022-12-01T08:49:03.179Z,986.75
2022-12-01T08:50:03.126Z,986.64
2022-12-01T08:51:02.993Z,986.64
2022-12-01T08:52:02.876Z,986.58
2022-12-01T08:53:02.905Z,986.58
2022-12-01T08:54:03.758Z,986.61
2022-12-01T08:55:03.768Z,986.69
2022-12-01T08:56:03.604Z,986.48
2022-12-01T08:57:03.632Z,986.56
2022-12-01T08:58:02.868Z,986.58
2022-12-01T08:59:03.832Z,986.70
2022-12-01T09:00:03.750Z,986.54
2022-12-01T09:01:03.648Z,986.54
2022-12-01T09:02:07.427Z,986.64
2022-12-01T09:03:03.840Z,986.67
2022-12-01T09:04:03.466Z,986.61
2022-12-01T09:05:03.347Z,986.67
2022-12-01T09:06:03.214Z,986.72
2022-12-01T09:07:03.214Z,986.70
2022-12-01T09:08:03.201Z,986.75
2022-12-01T09:09:03.013Z,986.61
2022-12-01T09:10:02.903Z,986.70
2022-12-01T09:11:02.914Z,986.75
2022-12-01T09:12:03.802Z,986.75
2022-12-01T09:13:03.627Z,986.70
2022-12-01T09:14:03.567Z,986.78
2022-12-01T09:15:03.464Z,986.78
2022-12-01T09:16:03.541Z,986.72
2022-12-01T09:17:03.292Z,986.78
2022-12-01T09:18:03.216Z,986.86
2022-12-01T09:19:03.050Z,986.81
2022-12-01T09:20:03.042Z,986.67
2022-12-01T09:21:02.956Z,986.97
2022-12-01T09:22:02.825Z,986.83
2022-12-01T09:23:03.722Z,986.95
2022-12-01T09:24:03.625Z,986.75
2022-12-01T09:25:03.534Z,986.86
2022-12-01T09:26:03.390Z,986.75
2022-12-01T09:27:03.437Z,986.86
2022-12-01T09:28:03.729Z,986.81
2022-12-01T09:29:03.660Z,986.89
2022-12-01T09:30:03.486Z,986.84
2022-12-01T09:31:03.542Z,986.67
2022-12-01T09:32:03.406Z,986.92
2022-12-01T09:33:03.304Z,986.84
2022-12-01T09:34:03.312Z,986.78
2022-12-01T09:35:03.324Z,986.70
2022-12-01T09:36:03.096Z,986.89
2022-12-01T09:37:03.050Z,986.78
2022-12-01T09:38:03.057Z,986.72
2022-12-01T09:39:02.975Z,986.81
2022-12-01T09:40:03.000Z,986.86
2022-12-01T09:41:02.834Z,986.67
2022-12-01T09:42:09.431Z,986.89
2022-12-01T09:43:03.768Z,986.78
2022-12-01T09:44:03.664Z,986.75
2022-12-01T09:45:03.598Z,986.84
2022-12-01T09:46:03.472Z,986.73
2022-12-01T09:47:03.722Z,986.81
2022-12-01T09:48:03.491Z,986.73
2022-12-01T09:49:03.312Z,986.70
2022-12-01T09:50:03.363Z,986.84
2022-12-01T09:51:03.128Z,986.73
2022-12-01T09:52:03.098Z,986.67
2022-12-01T09:53:03.035Z,986.78
2022-12-01T09:54:02.991Z,986.75
2022-12-01T09:55:03.872Z,986.78
2022-12-01T09:56:13.092Z,986.78
2022-12-01T09:57:03.701Z,986.73
2022-12-01T09:58:03.674Z,986.70
2022-12-01T09:59:03.435Z,986.75
2022-12-01T10:00:03.312Z,986.81
2022-12-01T10:01:03.392Z,986.70
2022-12-01T10:02:03.320Z,986.56
2022-12-01T10:03:03.226Z,986.46
2022-12-01T10:04:03.033Z,986.67
2022-12-01T10:05:03.042Z,986.54
2022-12-01T10:06:29.240Z,986.67
2022-12-01T10:07:03.837Z,986.67
2022-12-01T10:08:03.981Z,986.67
2022-12-01T10:09:03.706Z,986.54
2022-12-01T10:10:03.606Z,986.72
2022-12-01T10:11:03.586Z,986.51
2022-12-01T10:12:03.592Z,986.67
2022-12-01T10:13:03.448Z,986.61
2022-12-01T10:14:03.540Z,986.48
2022-12-01T10:15:03.337Z,986.56
2022-12-01T10:16:03.554Z,986.61
2022-12-01T10:17:03.251Z,986.48
2022-12-01T10:18:03.264Z,986.48
2022-12-01T10:19:03.027Z,986.48
2022-12-01T10:20:03.081Z,986.58
2022-12-01T10:21:03.097Z,986.46
2022-12-01T10:22:03.075Z,986.48
2022-12-01T10:23:02.935Z,986.48
2022-12-01T10:24:03.775Z,986.56
2022-12-01T10:25:03.771Z,986.54
2022-12-01T10:26:03.833Z,986.48
2022-12-01T10:27:03.833Z,986.67
2022-12-01T10:28:03.684Z,986.61
2022-12-01T10:29:03.491Z,986.46
2022-12-01T10:30:03.483Z,986.43
2022-12-01T10:31:03.343Z,986.56
2022-12-01T10:32:03.402Z,986.48
2022-12-01T10:33:03.143Z,986.34
2022-12-01T10:34:03.051Z,986.40
2022-12-01T10:35:03.417Z,986.51
2022-12-01T10:36:03.355Z,986.40
2022-12-01T10:37:03.245Z,986.43
2022-12-01T10:38:03.281Z,986.48
2022-12-01T10:39:03.092Z,986.37
2022-12-01T10:40:02.919Z,986.43
2022-12-01T10:41:02.973Z,986.56
2022-12-01T10:42:04.024Z,986.31
2022-12-01T10:43:03.164Z,986.43
2022-12-01T10:44:03.192Z,986.31
2022-12-01T10:45:03.112Z,986.45
2022-12-01T10:46:03.131Z,986.26
2022-12-01T10:47:02.895Z,986.40
2022-12-01T10:48:03.889Z,986.37
2022-12-01T10:49:03.717Z,986.29
2022-12-01T10:50:03.749Z,986.34
2022-12-01T10:51:03.648Z,986.26
2022-12-01T10:52:03.867Z,986.29
2022-12-01T10:53:03.722Z,986.45
2022-12-01T10:54:03.268Z,986.40
2022-12-01T10:55:03.291Z,986.31
2022-12-01T10:56:03.503Z,986.31
2022-12-01T10:57:03.258Z,986.26
2022-12-01T10:58:09.631Z,986.26
2022-12-01T10:59:03.148Z,986.37
2022-12-01T11:00:03.017Z,986.23
2022-12-01T11:01:03.256Z,986.34
2022-12-01T11:02:04.345Z,986.31
2022-12-01T11:03:04.169Z,986.31
2022-12-01T11:04:03.788Z,986.29
2022-12-01T11:05:03.747Z,986.34
2022-12-01T11:06:03.701Z,986.34
2022-12-01T11:07:03.631Z,986.20
2022-12-01T11:08:03.726Z,986.17
2022-12-01T11:09:03.617Z,986.26
2022-12-01T11:10:03.443Z,986.31
2022-12-01T11:11:03.359Z,986.34
2022-12-01T11:12:03.332Z,986.58
2022-12-01T11:13:03.349Z,986.28
2022-12-01T11:14:03.217Z,986.17
2022-12-01T11:15:03.315Z,986.23
2022-12-01T11:16:03.283Z,986.31
2022-12-01T11:17:03.188Z,986.12
2022-12-01T11:18:02.919Z,986.31
2022-12-01T11:19:03.032Z,986.37
2022-12-01T11:20:03.126Z,986.28
2022-12-01T11:21:03.825Z,986.28
2022-12-01T11:22:03.788Z,986.37
2022-12-01T11:23:03.771Z,986.37
2022-12-01T11:24:03.773Z,986.37
2022-12-01T11:25:03.729Z,986.51
2022-12-01T11:26:03.833Z,986.40
2022-12-01T11:27:03.686Z,986.40
2022-12-01T11:28:03.696Z,986.23
2022-12-01T11:29:03.702Z,986.31
2022-12-01T11:30:03.714Z,986.28
2022-12-01T11:31:03.627Z,986.45
2022-12-01T11:32:03.577Z,986.37
2022-12-01T11:33:03.502Z,986.45
2022-12-01T11:34:03.391Z,986.42
2022-12-01T11:35:03.332Z,986.23
2022-12-01T11:36:03.300Z,986.23
2022-12-01T11:37:03.354Z,986.28
2022-12-01T11:38:30.475Z,986.20
2022-12-01T11:39:03.210Z,986.20
2022-12-01T11:40:03.269Z,986.31
2022-12-01T11:41:03.156Z,986.28
2022-12-01T11:42:03.103Z,986.34
2022-12-01T11:43:02.950Z,986.15
2022-12-01T11:44:17.305Z,986.34
2022-12-01T11:45:03.885Z,986.17
2022-12-01T11:46:03.812Z,986.23
2022-12-01T11:47:23.921Z,986.37
2022-12-01T11:48:03.669Z,986.20
2022-12-01T11:49:03.721Z,986.15
2022-12-01T11:50:03.562Z,986.03
2022-12-01T11:51:03.572Z,986.09
2022-12-01T11:52:03.413Z,986.31
2022-12-01T11:53:03.279Z,986.26
2022-12-01T11:54:03.257Z,986.15
2022-12-01T11:55:10.319Z,986.37
2022-12-01T11:56:03.149Z,986.15
2022-12-01T11:57:34.416Z,986.26
2022-12-01T11:58:03.034Z,986.23
2022-12-01T11:59:02.928Z,986.31
2022-12-01T12:00:03.856Z,986.15
2022-12-01T12:01:03.725Z,986.29
2022-12-01T12:02:03.808Z,986.12
2022-12-01T12:03:03.836Z,986.29
2022-12-01T12:04:03.784Z,986.23
2022-12-01T12:05:03.841Z,986.23
2022-12-01T12:06:39.770Z,986.23
2022-12-01T12:07:03.621Z,986.23
2022-12-01T12:08:03.702Z,986.23
2022-12-01T12:09:03.586Z,986.20
2022-12-01T12:10:03.348Z,986.17
2022-12-01T12:11:03.657Z,986.20
2022-12-01T12:12:03.511Z,986.15
2022-12-01T12:13:03.359Z,986.01
2022-12-01T12:14:03.378Z,986.12
2022-12-01T12:15:03.285Z,986.26
2022-12-01T12:16:03.129Z,986.17
2022-12-01T12:17:03.184Z,986.26
2022-12-01T12:18:03.381Z,986.09
2022-12-01T12:19:03.205Z,986.09
2022-12-01T12:20:09.597Z,986.17
2022-12-01T12:21:03.333Z,986.12
2022-12-01T12:22:03.338Z,986.23
2022-12-01T12:23:03.312Z,986.20
2022-12-01T12:24:03.262Z,986.06
2022-12-01T12:25:03.218Z,986.06
2022-12-01T12:26:03.163Z,986.17
2022-12-01T12:27:03.042Z,986.09
2022-12-01T12:28:03.047Z,985.98